createdAt,value
2018-04-25T12:46:42.155Z,58.00
2018-04-25T12:49:09.196Z,59.60
2018-04-25T12:51:35.396Z,59.50
2018-04-25T12:54:01.626Z,58.90
2018-04-25T12:56:27.790Z,59.10
2018-04-25T12:58:54.192Z,59.90
2018-04-25T13:01:20.403Z,59.60
2018-04-25T13:03:46.598Z,59.60
2018-04-25T13:06:12.797Z,58.70
2018-04-25T13:08:39.009Z,58.10
2018-04-25T13:11:05.371Z,59.10
2018-04-25T13:13:31.563Z,58.10
2018-04-25T13:15:58.525Z,59.20
2018-04-25T13:18:24.727Z,59.20
2018-04-25T13:20:50.873Z,60.80
2018-04-25T13:23:17.801Z,57.60
2018-04-25T13:25:43.985Z,57.00
2018-04-25T13:28:10.229Z,59.00
2018-04-25T13:30:36.417Z,59.10
2018-04-25T13:33:03.392Z,57.10
2018-04-25T13:35:29.574Z,57.10
2018-04-25T13:37:56.525Z,54.80
2018-04-25T13:40:22.695Z,54.80
2018-04-25T13:42:48.889Z,54.50
2018-04-25T13:45:15.135Z,56.70
2018-04-25T13:47:41.309Z,56.10
2018-04-25T13:50:07.588Z,59.10
2018-04-25T13:52:33.851Z,58.30
2018-04-25T13:55:00.014Z,58.90
2018-04-25T13:57:26.173Z,58.80
2018-04-25T13:59:52.424Z,59.90
2018-04-25T14:02:18.641Z,59.70
2018-04-25T14:04:46.082Z,58.80
2018-04-25T14:07:12.275Z,58.90
2018-04-25T14:09:39.216Z,58.20
2018-04-25T14:12:06.135Z,57.60
2018-04-25T14:14:32.367Z,57.60
2018-04-25T14:16:58.556Z,57.00
2018-04-25T14:19:24.737Z,55.60
2018-04-25T14:21:50.909Z,56.60
2018-04-25T14:24:17.171Z,54.40
2018-04-25T14:26:43.437Z,55.90
2018-04-25T14:29:09.648Z,55.00
2018-04-25T14:31:35.861Z,55.70
2018-04-25T14:34:02.302Z,54.00
2018-04-25T14:36:28.512Z,53.20
2018-04-25T14:38:54.725Z,54.80
2018-04-25T14:41:20.905Z,53.80
2018-04-25T14:43:47.122Z,54.30
2018-04-25T14:46:13.294Z,53.60
2018-04-25T14:48:39.533Z,53.90
2018-04-25T14:51:05.718Z,54.00
2018-04-25T14:53:31.923Z,55.70
2018-04-25T14:55:58.085Z,56.20
2018-04-25T14:58:24.344Z,54.60
2018-04-25T15:00:50.575Z,54.30
2018-04-25T15:03:16.798Z,54.00
2018-04-25T15:05:43.001Z,54.20
2018-04-25T15:08:09.243Z,54.10
2018-04-25T15:10:35.444Z,53.00
2018-04-25T15:13:01.627Z,53.10
2018-04-25T15:15:27.845Z,52.50
2018-04-25T15:17:54.352Z,52.50
2018-04-25T15:20:20.568Z,53.00
2018-04-25T15:22:46.750Z,53.20
2018-04-25T15:25:12.958Z,53.60
2018-04-25T15:27:39.818Z,52.80
2018-04-25T15:30:06.221Z,52.80
2018-04-25T15:32:32.489Z,53.20
2018-04-25T15:34:58.739Z,52.40
2018-04-25T15:37:24.989Z,53.70
2018-04-25T15:39:51.216Z,51.40
2018-04-25T15:42:17.418Z,51.70
2018-04-25T15:44:43.685Z,51.10
2018-04-25T15:47:09.949Z,51.40
2018-04-25T15:49:36.213Z,52.10
2018-04-25T15:52:02.447Z,51.30
2018-04-25T15:54:28.665Z,51.50
2018-04-25T15:56:54.912Z,51.80
2018-04-25T15:59:21.177Z,52.80
2018-04-25T16:01:47.375Z,52.40
2018-04-25T16:04:13.585Z,51.40
2018-04-25T16:06:39.766Z,51.20
2018-04-25T16:09:05.982Z,51.60
2018-04-25T16:11:32.175Z,52.30
2018-04-25T16:13:58.340Z,51.80
2018-04-25T16:16:24.745Z,52.50
2018-04-25T16:18:51.161Z,51.70
2018-04-25T16:21:17.396Z,52.90
2018-04-25T16:23:43.578Z,53.20
2018-04-25T16:26:09.853Z,52.90
2018-04-25T16:28:36.050Z,52.90
2018-04-25T16:31:02.451Z,52.80
2018-04-25T16:33:28.727Z,52.50
2018-04-25T16:35:54.967Z,53.30
2018-04-25T16:38:21.146Z,53.50
2018-04-25T16:40:48.064Z,52.80
2018-04-25T16:43:14.229Z,52.80
2018-04-25T16:45:41.174Z,53.10
2018-04-25T16:48:07.613Z,53.10
2018-04-25T16:50:33.923Z,52.10
2018-04-25T16:53:00.037Z,52.00
2018-04-25T16:55:26.250Z,51.90
2018-04-25T16:57:52.495Z,53.20
2018-04-25T17:00:19.559Z,51.50
2018-04-25T17:02:45.836Z,51.50
2018-04-25T17:05:12.025Z,50.80
2018-04-25T17:07:38.199Z,51.00
2018-04-25T17:10:04.578Z,51.50
2018-04-25T17:12:31.494Z,51.40
2018-04-25T17:14:58.066Z,51.40
2018-04-25T17:17:24.210Z,51.50
2018-04-25T17:19:50.394Z,52.00
2018-04-25T17:22:17.320Z,52.20
2018-04-25T17:24:43.554Z,52.10
2018-04-25T17:27:09.753Z,52.20
2018-04-25T17:29:36.167Z,52.80
2018-04-25T17:32:02.581Z,53.60
2018-04-25T17:34:28.761Z,53.00
2018-04-25T17:36:55.178Z,52.30
2018-04-25T17:39:21.290Z,51.80
2018-04-25T17:41:47.657Z,52.50
2018-04-25T17:44:13.840Z,51.60
2018-04-25T17:46:40.078Z,52.50
2018-04-25T17:49:06.413Z,53.10
2018-04-25T17:51:32.642Z,53.30
2018-04-25T17:53:58.958Z,53.70
2018-04-25T17:56:25.247Z,53.80
2018-04-25T17:58:51.541Z,54.20
2018-04-25T18:01:18.521Z,55.10
2018-04-25T18:03:45.450Z,55.20
2018-04-25T18:06:11.857Z,55.20
2018-04-25T18:08:38.028Z,54.80
2018-04-25T18:11:05.050Z,55.30
2018-04-25T18:13:32.021Z,55.20
2018-04-25T18:15:59.003Z,55.80
2018-04-25T18:18:25.231Z,55.80
2018-04-25T18:20:51.426Z,56.00
2018-04-25T18:23:17.656Z,56.50
2018-04-25T18:25:43.879Z,57.60
2018-04-25T18:28:10.061Z,57.90
2018-04-25T18:30:36.281Z,57.90
2018-04-25T18:33:02.536Z,58.40
2018-04-25T18:35:28.845Z,59.30
2018-04-25T18:37:55.018Z,60.00
2018-04-25T18:40:21.197Z,59.10
2018-04-25T18:42:47.505Z,59.00
2018-04-25T18:45:13.679Z,59.20
2018-04-25T18:47:39.878Z,59.10
2018-04-25T18:50:06.184Z,59.30
2018-04-25T18:52:32.694Z,59.60
2018-04-25T18:54:58.969Z,60.30
2018-04-25T18:57:25.173Z,60.40
2018-04-25T18:59:51.421Z,60.30
2018-04-25T19:02:17.685Z,59.90
2018-04-25T19:04:44.730Z,59.50
2018-04-25T19:07:11.270Z,59.60
2018-04-25T19:09:37.471Z,60.00
2018-04-25T19:12:03.666Z,60.20
2018-04-25T19:14:29.866Z,60.70
2018-04-25T19:16:56.957Z,61.60
2018-04-25T19:19:23.123Z,61.70
2018-04-25T19:21:49.325Z,62.70
2018-04-25T19:24:15.530Z,62.10
2018-04-25T19:26:41.726Z,62.40
2018-04-25T19:29:07.903Z,63.40
2018-04-25T19:31:34.099Z,63.40
2018-04-25T19:34:00.326Z,61.60
2018-04-25T19:36:26.700Z,60.60
2018-04-25T19:38:53.092Z,59.70
2018-04-25T19:41:19.277Z,59.10
2018-04-25T19:43:45.609Z,58.60
2018-04-25T19:46:12.526Z,57.80
2018-04-25T19:48:38.701Z,57.70
2018-04-25T19:51:04.963Z,58.30
2018-04-25T19:53:31.198Z,57.60
2018-04-25T19:55:57.384Z,57.40
2018-04-25T19:58:23.599Z,57.60
2018-04-25T20:00:50.574Z,57.00
2018-04-25T20:03:16.821Z,57.00
2018-04-25T20:05:43.591Z,56.60
2018-04-25T20:08:09.785Z,56.60
2018-04-25T20:10:35.997Z,56.50
2018-04-25T20:13:02.300Z,56.80
2018-04-25T20:15:28.480Z,57.70
2018-04-25T20:17:54.693Z,59.40
2018-04-25T20:20:20.950Z,59.70
2018-04-25T20:22:47.117Z,58.90
2018-04-25T20:25:13.287Z,58.80
2018-04-25T20:27:39.458Z,58.60
2018-04-25T20:30:06.402Z,59.70
2018-04-25T20:32:32.593Z,59.60
2018-04-25T20:34:58.794Z,59.30
2018-04-25T20:37:25.030Z,60.20
2018-04-25T20:39:51.225Z,60.20
2018-04-25T20:42:17.440Z,60.50
2018-04-25T20:44:44.410Z,60.40
2018-04-25T20:47:10.748Z,60.30
2018-04-25T20:49:37.174Z,60.20
2018-04-25T20:52:03.349Z,61.40
2018-04-25T20:54:29.612Z,61.70
2018-04-25T20:56:55.913Z,62.70
2018-04-25T20:59:22.044Z,63.10
2018-04-25T21:01:48.259Z,62.80
2018-04-25T21:04:14.427Z,64.00
2018-04-25T21:06:40.698Z,64.00
2018-04-25T21:09:06.932Z,64.70
2018-04-25T21:11:33.138Z,64.30
2018-04-25T21:13:59.349Z,65.10
2018-04-25T21:16:25.531Z,66.60
2018-04-25T21:18:52.433Z,65.60
2018-04-25T21:21:18.639Z,65.60
2018-04-25T21:23:44.878Z,64.60
2018-04-25T21:26:11.073Z,65.30
2018-04-25T21:28:37.977Z,66.10
2018-04-25T21:31:04.165Z,66.00
2018-04-25T21:33:30.354Z,67.20
2018-04-25T21:35:57.282Z,61.60
2018-04-25T21:38:23.460Z,61.50
2018-04-25T21:40:49.625Z,62.10
2018-04-25T21:43:15.809Z,60.60
2018-04-25T21:45:41.984Z,60.50
2018-04-25T21:48:08.266Z,63.40
2018-04-25T21:50:34.457Z,64.10
2018-04-25T21:53:00.636Z,63.50
2018-04-25T21:55:26.812Z,63.40
2018-04-25T21:57:52.993Z,64.80
2018-04-25T22:00:19.179Z,64.90
2018-04-25T22:02:46.081Z,66.60
2018-04-25T22:05:12.245Z,66.60
2018-04-25T22:07:39.165Z,67.00
2018-04-25T22:10:05.340Z,67.00
2018-04-25T22:12:31.519Z,67.50
2018-04-25T22:14:57.725Z,68.00
2018-04-25T22:17:23.970Z,68.10
2018-04-25T22:19:50.156Z,68.10
2018-04-25T22:22:16.376Z,67.90
2018-04-25T22:24:42.565Z,68.60
2018-04-25T22:27:09.474Z,68.40
2018-04-25T22:29:35.679Z,68.40
2018-04-25T22:32:01.878Z,68.70
2018-04-25T22:34:28.073Z,68.80
2018-04-25T22:36:54.361Z,69.00
2018-04-25T22:39:20.617Z,69.20
2018-04-25T22:41:46.822Z,69.20
2018-04-25T22:44:13.014Z,69.40
2018-04-25T22:46:39.188Z,69.70
2018-04-25T22:49:05.566Z,69.70
2018-04-25T22:51:32.466Z,69.20
2018-04-25T22:53:58.668Z,69.00
2018-04-25T22:56:24.834Z,68.90
2018-04-25T22:58:51.022Z,68.70
2018-04-25T23:01:17.190Z,68.30
2018-04-25T23:03:43.397Z,67.30
2018-04-25T23:06:09.606Z,67.30
2018-04-25T23:08:35.794Z,65.20
2018-04-25T23:11:01.977Z,65.00
2018-04-25T23:13:28.194Z,63.60
2018-04-25T23:15:54.370Z,62.20
2018-04-25T23:18:21.271Z,62.40
2018-04-25T23:20:47.472Z,62.40
2018-04-25T23:23:13.629Z,61.50
2018-04-25T23:25:39.824Z,61.50
2018-04-25T23:28:06.059Z,61.20
2018-04-25T23:30:32.283Z,61.10
2018-04-25T23:32:58.482Z,61.10
2018-04-25T23:35:25.402Z,62.20
2018-04-25T23:37:51.725Z,62.20
2018-04-25T23:40:17.913Z,62.20
2018-04-25T23:42:44.087Z,62.20
2018-04-25T23:45:10.269Z,62.50
2018-04-25T23:47:36.430Z,62.70
2018-04-25T23:50:02.690Z,62.90
2018-04-25T23:52:28.850Z,62.20
2018-04-25T23:54:55.038Z,62.20
2018-04-25T23:57:21.962Z,62.20
2018-04-25T23:59:48.309Z,62.10
